sensor_id;sensor_type;location;lat;lon;timestamp;P1;durP1;ratioP1;P2;durP2;ratioP2
17365;SDS011;8800;50.118;9.900;2022-09-11T00:01:54;8.50;;;4.80;;
17365;SDS011;8800;50.118;9.900;2022-09-11T00:04:21;4.80;;;3.63;;
17365;SDS011;8800;50.118;9.900;2022-09-11T00:06:51;4.93;;;4.03;;
17365;SDS011;8800;50.118;9.900;2022-09-11T00:09:17;5.70;;;3.85;;
17365;SDS011;8800;50.118;9.900;2022-09-11T00:11:44;6.97;;;3.90;;
17365;SDS011;8800;50.118;9.900;2022-09-11T00:14:11;6.60;;;4.70;;
17365;SDS011;8800;50.118;9.900;2022-09-11T00:16:40;8.00;;;4.13;;
17365;SDS011;8800;50.118;9.900;2022-09-11T00:19:10;7.78;;;4.20;;
17365;SDS011;8800;50.118;9.900;2022-09-11T00:21:37;6.28;;;4.45;;
17365;SDS011;8800;50.118;9.900;2022-09-11T00:24:03;6.05;;;4.18;;
17365;SDS011;8800;50.118;9.900;2022-09-11T00:26:34;5.93;;;4.63;;
17365;SDS011;8800;50.118;9.900;2022-09-11T00:29:00;7.93;;;4.20;;
17365;SDS011;8800;50.118;9.900;2022-09-11T00:31:28;7.28;;;5.03;;
17365;SDS011;8800;50.118;9.900;2022-09-11T00:33:56;7.85;;;4.57;;
17365;SDS011;8800;50.118;9.900;2022-09-11T00:36:25;6.10;;;4.43;;
17365;SDS011;8800;50.118;9.900;2022-09-11T00:38:52;4.60;;;3.97;;
17365;SDS011;8800;50.118;9.900;2022-09-11T00:41:19;7.03;;;5.20;;
17365;SDS011;8800;50.118;9.900;2022-09-11T00:43:49;6.40;;;4.55;;
17365;SDS011;8800;50.118;9.900;2022-09-11T00:46:16;7.50;;;5.25;;
17365;SDS011;8800;50.118;9.900;2022-09-11T00:48:43;6.80;;;4.88;;
17365;SDS011;8800;50.118;9.900;2022-09-11T00:51:14;9.52;;;5.00;;
17365;SDS011;8800;50.118;9.900;2022-09-11T00:53:44;6.13;;;5.35;;
17365;SDS011;8800;50.118;9.900;2022-09-11T00:56:12;8.45;;;5.25;;
17365;SDS011;8800;50.118;9.900;2022-09-11T00:58:39;8.43;;;5.75;;
17365;SDS011;8800;50.118;9.900;2022-09-11T01:01:08;9.18;;;5.50;;
17365;SDS011;8800;50.118;9.900;2022-09-11T01:03:35;7.65;;;5.45;;
17365;SDS011;8800;50.118;9.900;2022-09-11T01:06:02;7.00;;;5.20;;
17365;SDS011;8800;50.118;9.900;2022-09-11T01:08:31;6.13;;;5.20;;
17365;SDS011;8800;50.118;9.900;2022-09-11T01:11:01;9.85;;;5.40;;
17365;SDS011;8800;50.118;9.900;2022-09-11T01:13:32;8.48;;;5.53;;
17365;SDS011;8800;50.118;9.900;2022-09-11T01:16:01;8.75;;;4.85;;
17365;SDS011;8800;50.118;9.900;2022-09-11T01:18:31;6.93;;;5.00;;
17365;SDS011;8800;50.118;9.900;2022-09-11T01:21:10;8.00;;;4.90;;
17365;SDS011;8800;50.118;9.900;2022-09-11T01:23:59;6.93;;;4.97;;
17365;SDS011;8800;50.118;9.900;2022-09-11T01:26:37;8.75;;;4.65;;
17365;SDS011;8800;50.118;9.900;2022-09-11T01:29:06;7.18;;;5.18;;
17365;SDS011;8800;50.118;9.900;2022-09-11T01:31:35;6.80;;;5.47;;
17365;SDS011;8800;50.118;9.900;2022-09-11T01:34:08;7.95;;;5.22;;
17365;SDS011;8800;50.118;9.900;2022-09-11T01:36:37;7.78;;;5.03;;
17365;SDS011;8800;50.118;9.900;2022-09-11T01:39:04;7.78;;;5.10;;
17365;SDS011;8800;50.118;9.900;2022-09-11T01:41:31;6.57;;;5.20;;
17365;SDS011;8800;50.118;9.900;2022-09-11T01:44:00;7.35;;;5.93;;
17365;SDS011;8800;50.118;9.900;2022-09-11T01:46:31;7.88;;;5.32;;
17365;SDS011;8800;50.118;9.900;2022-09-11T01:49:00;9.75;;;5.97;;
17365;SDS011;8800;50.118;9.900;2022-09-11T01:51:29;10.73;;;6.32;;
17365;SDS011;8800;50.118;9.900;2022-09-11T01:53:57;6.95;;;5.95;;
17365;SDS011;8800;50.118;9.900;2022-09-11T01:56:26;8.82;;;6.35;;
17365;SDS011;8800;50.118;9.900;2022-09-11T01:58:56;7.80;;;5.40;;
17365;SDS011;8800;50.118;9.900;2022-09-11T02:01:26;6.72;;;5.30;;
17365;SDS011;8800;50.118;9.900;2022-09-11T02:03:55;7.97;;;6.07;;
17365;SDS011;8800;50.118;9.900;2022-09-11T02:06:27;8.10;;;5.30;;
17365;SDS011;8800;50.118;9.900;2022-09-11T02:08:55;8.27;;;5.60;;
17365;SDS011;8800;50.118;9.900;2022-09-11T02:11:23;7.38;;;5.03;;
17365;SDS011;8800;50.118;9.900;2022-09-11T02:13:53;5.45;;;4.45;;
17365;SDS011;8800;50.118;9.900;2022-09-11T02:16:24;7.53;;;4.43;;
17365;SDS011;8800;50.118;9.900;2022-09-11T02:18:57;5.82;;;4.38;;
17365;SDS011;8800;50.118;9.900;2022-09-11T02:21:24;6.05;;;4.53;;
17365;SDS011;8800;50.118;9.900;2022-09-11T02:23:51;6.05;;;4.40;;
17365;SDS011;8800;50.118;9.900;2022-09-11T02:26:19;6.35;;;4.85;;
17365;SDS011;8800;50.118;9.900;2022-09-11T02:28:47;5.55;;;4.72;;
17365;SDS011;8800;50.118;9.900;2022-09-11T02:31:14;7.43;;;4.50;;
17365;SDS011;8800;50.118;9.900;2022-09-11T02:33:41;6.05;;;5.15;;
17365;SDS011;8800;50.118;9.900;2022-09-11T02:38:53;6.60;;;4.88;;
17365;SDS011;8800;50.118;9.900;2022-09-11T02:41:25;8.07;;;5.03;;
17365;SDS011;8800;50.118;9.900;2022-09-11T02:43:56;8.82;;;5.22;;
17365;SDS011;8800;50.118;9.900;2022-09-11T02:49:06;6.90;;;5.22;;
17365;SDS011;8800;50.118;9.900;2022-09-11T02:51:35;6.57;;;5.28;;
17365;SDS011;8800;50.118;9.900;2022-09-11T02:54:07;6.82;;;5.32;;
17365;SDS011;8800;50.118;9.900;2022-09-11T02:56:39;6.50;;;5.00;;
17365;SDS011;8800;50.118;9.900;2022-09-11T02:59:08;7.60;;;5.65;;
17365;SDS011;8800;50.118;9.900;2022-09-11T03:01:48;6.13;;;5.15;;
17365;SDS011;8800;50.118;9.900;2022-09-11T03:04:17;8.77;;;5.50;;
17365;SDS011;8800;50.118;9.900;2022-09-11T03:06:44;6.03;;;4.97;;
17365;SDS011;8800;50.118;9.900;2022-09-11T03:09:14;7.63;;;6.00;;
17365;SDS011;8800;50.118;9.900;2022-09-11T03:11:40;6.22;;;5.30;;
17365;SDS011;8800;50.118;9.900;2022-09-11T03:14:07;7.47;;;5.88;;
17365;SDS011;8800;50.118;9.900;2022-09-11T03:16:33;6.50;;;5.03;;
17365;SDS011;8800;50.118;9.900;2022-09-11T03:19:01;6.43;;;5.22;;
17365;SDS011;8800;50.118;9.900;2022-09-11T03:21:27;6.45;;;5.40;;
17365;SDS011;8800;50.118;9.900;2022-09-11T03:23:53;6.82;;;4.80;;
17365;SDS011;8800;50.118;9.900;2022-09-11T03:26:22;8.43;;;5.30;;
17365;SDS011;8800;50.118;9.900;2022-09-11T03:28:49;8.52;;;5.20;;
17365;SDS011;8800;50.118;9.900;2022-09-11T03:31:17;8.40;;;4.70;;
17365;SDS011;8800;50.118;9.900;2022-09-11T03:33:44;6.70;;;4.28;;
17365;SDS011;8800;50.118;9.900;2022-09-11T03:36:11;5.40;;;4.10;;
17365;SDS011;8800;50.118;9.900;2022-09-11T03:38:38;5.38;;;3.78;;
17365;SDS011;8800;50.118;9.900;2022-09-11T03:41:04;4.55;;;3.30;;
17365;SDS011;8800;50.118;9.900;2022-09-11T03:43:34;4.82;;;3.30;;
17365;SDS011;8800;50.118;9.900;2022-09-11T03:46:01;4.43;;;3.25;;
17365;SDS011;8800;50.118;9.900;2022-09-11T03:48:28;4.30;;;3.17;;
17365;SDS011;8800;50.118;9.900;2022-09-11T03:50:54;3.85;;;2.90;;
17365;SDS011;8800;50.118;9.900;2022-09-11T03:53:23;3.80;;;3.22;;
17365;SDS011;8800;50.118;9.900;2022-09-11T03:55:49;3.85;;;3.20;;
17365;SDS011;8800;50.118;9.900;2022-09-11T03:58:16;3.53;;;2.88;;
17365;SDS011;8800;50.118;9.900;2022-09-11T04:00:44;5.93;;;2.60;;
17365;SDS011;8800;50.118;9.900;2022-09-11T04:03:12;3.50;;;2.70;;
17365;SDS011;8800;50.118;9.900;2022-09-11T04:05:39;3.20;;;2.60;;
17365;SDS011;8800;50.118;9.900;2022-09-11T04:08:09;5.18;;;2.42;;
17365;SDS011;8800;50.118;9.900;2022-09-11T04:10:36;3.95;;;2.53;;
17365;SDS011;8800;50.118;9.900;2022-09-11T04:13:02;2.80;;;2.40;;
17365;SDS011;8800;50.118;9.900;2022-09-11T04:15:29;4.05;;;2.70;;
17365;SDS011;8800;50.118;9.900;2022-09-11T04:17:58;3.03;;;2.58;;
17365;SDS011;8800;50.118;9.900;2022-09-11T04:20:25;3.40;;;3.03;;
17365;SDS011;8800;50.118;9.900;2022-09-11T04:22:51;4.18;;;2.88;;
17365;SDS011;8800;50.118;9.900;2022-09-11T04:25:18;4.18;;;3.30;;
17365;SDS011;8800;50.118;9.900;2022-09-11T04:27:45;4.85;;;3.40;;
17365;SDS011;8800;50.118;9.900;2022-09-11T04:30:12;2.45;;;2.00;;
17365;SDS011;8800;50.118;9.900;2022-09-11T04:32:38;2.97;;;2.50;;
17365;SDS011;8800;50.118;9.900;2022-09-11T04:35:06;5.80;;;2.80;;
17365;SDS011;8800;50.118;9.900;2022-09-11T04:37:33;3.05;;;2.30;;
17365;SDS011;8800;50.118;9.900;2022-09-11T04:40:00;2.88;;;2.08;;
17365;SDS011;8800;50.118;9.900;2022-09-11T04:42:27;4.43;;;2.10;;
17365;SDS011;8800;50.118;9.900;2022-09-11T04:44:54;3.15;;;2.03;;
17365;SDS011;8800;50.118;9.900;2022-09-11T04:47:20;2.88;;;2.40;;
17365;SDS011;8800;50.118;9.900;2022-09-11T04:49:47;3.50;;;2.60;;
17365;SDS011;8800;50.118;9.900;2022-09-11T04:52:15;4.50;;;2.60;;
17365;SDS011;8800;50.118;9.900;2022-09-11T04:54:42;6.38;;;3.35;;
17365;SDS011;8800;50.118;9.900;2022-09-11T04:57:10;5.07;;;3.20;;
17365;SDS011;8800;50.118;9.900;2022-09-11T04:59:38;5.82;;;3.67;;
17365;SDS011;8800;50.118;9.900;2022-09-11T05:02:05;5.15;;;3.35;;
17365;SDS011;8800;50.118;9.900;2022-09-11T05:04:31;3.85;;;3.42;;
17365;SDS011;8800;50.118;9.900;2022-09-11T05:06:58;6.53;;;4.05;;
17365;SDS011;8800;50.118;9.900;2022-09-11T05:09:26;7.55;;;4.63;;
17365;SDS011;8800;50.118;9.900;2022-09-11T05:11:52;6.32;;;4.20;;
17365;SDS011;8800;50.118;9.900;2022-09-11T05:14:22;7.93;;;4.65;;
17365;SDS011;8800;50.118;9.900;2022-09-11T05:16:49;6.90;;;4.85;;
17365;SDS011;8800;50.118;9.900;2022-09-11T05:19:17;6.75;;;4.68;;
17365;SDS011;8800;50.118;9.900;2022-09-11T05:21:43;6.78;;;5.40;;
17365;SDS011;8800;50.118;9.900;2022-09-11T05:24:10;6.25;;;5.15;;
17365;SDS011;8800;50.118;9.900;2022-09-11T05:26:38;9.48;;;5.00;;
17365;SDS011;8800;50.118;9.900;2022-09-11T05:29:05;11.35;;;5.78;;
17365;SDS011;8800;50.118;9.900;2022-09-11T05:31:33;9.50;;;6.05;;
17365;SDS011;8800;50.118;9.900;2022-09-11T05:34:01;8.15;;;6.20;;
17365;SDS011;8800;50.118;9.900;2022-09-11T05:36:27;10.80;;;6.13;;
17365;SDS011;8800;50.118;9.900;2022-09-11T05:38:55;9.55;;;6.28;;
17365;SDS011;8800;50.118;9.900;2022-09-11T05:41:21;10.07;;;6.10;;
17365;SDS011;8800;50.118;9.900;2022-09-11T05:43:50;9.82;;;6.60;;
17365;SDS011;8800;50.118;9.900;2022-09-11T05:46:17;12.13;;;6.57;;
17365;SDS011;8800;50.118;9.900;2022-09-11T05:48:44;10.85;;;7.20;;
17365;SDS011;8800;50.118;9.900;2022-09-11T05:51:11;12.40;;;7.78;;
17365;SDS011;8800;50.118;9.900;2022-09-11T05:53:38;11.02;;;7.53;;
17365;SDS011;8800;50.118;9.900;2022-09-11T05:56:05;12.40;;;8.13;;
17365;SDS011;8800;50.118;9.900;2022-09-11T05:58:32;13.75;;;8.00;;
17365;SDS011;8800;50.118;9.900;2022-09-11T06:01:02;11.93;;;8.45;;
17365;SDS011;8800;50.118;9.900;2022-09-11T06:03:32;13.55;;;8.40;;
17365;SDS011;8800;50.118;9.900;2022-09-11T06:05:59;12.45;;;8.40;;
17365;SDS011;8800;50.118;9.900;2022-09-11T06:08:26;12.80;;;8.43;;
17365;SDS011;8800;50.118;9.900;2022-09-11T06:10:53;11.88;;;8.85;;
17365;SDS011;8800;50.118;9.900;2022-09-11T06:13:20;12.95;;;8.77;;
17365;SDS011;8800;50.118;9.900;2022-09-11T06:15:46;16.00;;;9.35;;
17365;SDS011;8800;50.118;9.900;2022-09-11T06:18:15;13.68;;;8.55;;
17365;SDS011;8800;50.118;9.900;2022-09-11T06:20:41;15.10;;;8.65;;
17365;SDS011;8800;50.118;9.900;2022-09-11T06:23:09;13.57;;;9.65;;
17365;SDS011;8800;50.118;9.900;2022-09-11T06:25:36;14.35;;;10.55;;
17365;SDS011;8800;50.118;9.900;2022-09-11T06:28:03;13.35;;;9.75;;
17365;SDS011;8800;50.118;9.900;2022-09-11T06:30:30;15.13;;;10.00;;
17365;SDS011;8800;50.118;9.900;2022-09-11T06:32:56;16.05;;;10.20;;
17365;SDS011;8800;50.118;9.900;2022-09-11T06:35:24;17.33;;;10.63;;
17365;SDS011;8800;50.118;9.900;2022-09-11T06:37:51;14.88;;;10.13;;
17365;SDS011;8800;50.118;9.900;2022-09-11T06:40:17;15.20;;;9.55;;
17365;SDS011;8800;50.118;9.900;2022-09-11T06:42:44;12.90;;;9.63;;
17365;SDS011;8800;50.118;9.900;2022-09-11T06:45:11;19.92;;;11.70;;
17365;SDS011;8800;50.118;9.900;2022-09-11T06:47:38;16.65;;;11.20;;
17365;SDS011;8800;50.118;9.900;2022-09-11T06:50:05;20.02;;;10.98;;
17365;SDS011;8800;50.118;9.900;2022-09-11T06:52:34;14.68;;;9.45;;
17365;SDS011;8800;50.118;9.900;2022-09-11T06:55:07;13.82;;;9.63;;
17365;SDS011;8800;50.118;9.900;2022-09-11T06:57:37;16.08;;;10.30;;
17365;SDS011;8800;50.118;9.900;2022-09-11T07:00:06;16.75;;;10.90;;
17365;SDS011;8800;50.118;9.900;2022-09-11T07:02:35;14.02;;;9.27;;
17365;SDS011;8800;50.118;9.900;2022-09-11T07:05:15;16.13;;;10.55;;
17365;SDS011;8800;50.118;9.900;2022-09-11T07:07:43;16.77;;;10.48;;
17365;SDS011;8800;50.118;9.900;2022-09-11T07:10:10;22.48;;;12.15;;
17365;SDS011;8800;50.118;9.900;2022-09-11T07:12:37;20.73;;;11.70;;
17365;SDS011;8800;50.118;9.900;2022-09-11T07:15:07;20.38;;;12.50;;
17365;SDS011;8800;50.118;9.900;2022-09-11T07:17:34;19.17;;;11.38;;
17365;SDS011;8800;50.118;9.900;2022-09-11T07:20:01;16.02;;;11.27;;
17365;SDS011;8800;50.118;9.900;2022-09-11T07:22:28;18.17;;;11.10;;
17365;SDS011;8800;50.118;9.900;2022-09-11T07:24:56;17.75;;;11.70;;
17365;SDS011;8800;50.118;9.900;2022-09-11T07:27:25;21.33;;;12.25;;
17365;SDS011;8800;50.118;9.900;2022-09-11T07:29:57;16.45;;;11.98;;
17365;SDS011;8800;50.118;9.900;2022-09-11T07:32:23;18.05;;;11.90;;
17365;SDS011;8800;50.118;9.900;2022-09-11T07:34:51;17.02;;;10.73;;
17365;SDS011;8800;50.118;9.900;2022-09-11T07:37:17;18.48;;;11.68;;
17365;SDS011;8800;50.118;9.900;2022-09-11T07:39:44;18.27;;;11.75;;
17365;SDS011;8800;50.118;9.900;2022-09-11T07:42:12;16.08;;;10.77;;
17365;SDS011;8800;50.118;9.900;2022-09-11T07:44:39;15.40;;;10.55;;
17365;SDS011;8800;50.118;9.900;2022-09-11T07:47:08;16.90;;;11.40;;
17365;SDS011;8800;50.118;9.900;2022-09-11T07:49:35;15.80;;;10.95;;
17365;SDS011;8800;50.118;9.900;2022-09-11T07:52:02;17.48;;;11.73;;
17365;SDS011;8800;50.118;9.900;2022-09-11T07:54:29;15.88;;;11.25;;
17365;SDS011;8800;50.118;9.900;2022-09-11T07:56:56;18.38;;;11.90;;
17365;SDS011;8800;50.118;9.900;2022-09-11T07:59:24;18.63;;;12.13;;
17365;SDS011;8800;50.118;9.900;2022-09-11T08:01:51;16.23;;;11.50;;
17365;SDS011;8800;50.118;9.900;2022-09-11T08:04:19;18.30;;;12.00;;
17365;SDS011;8800;50.118;9.900;2022-09-11T08:06:46;17.25;;;11.73;;
17365;SDS011;8800;50.118;9.900;2022-09-11T08:09:13;17.02;;;11.23;;
17365;SDS011;8800;50.118;9.900;2022-09-11T08:11:40;16.20;;;10.55;;
17365;SDS011;8800;50.118;9.900;2022-09-11T08:14:07;16.15;;;10.88;;
17365;SDS011;8800;50.118;9.900;2022-09-11T08:16:36;18.55;;;10.27;;
17365;SDS011;8800;50.118;9.900;2022-09-11T08:19:03;17.63;;;11.73;;
17365;SDS011;8800;50.118;9.900;2022-09-11T08:21:30;17.00;;;10.38;;
17365;SDS011;8800;50.118;9.900;2022-09-11T08:23:56;15.85;;;11.02;;
17365;SDS011;8800;50.118;9.900;2022-09-11T08:26:24;15.50;;;10.98;;
17365;SDS011;8800;50.118;9.900;2022-09-11T08:28:51;15.00;;;10.35;;
17365;SDS011;8800;50.118;9.900;2022-09-11T08:31:19;16.40;;;11.38;;
17365;SDS011;8800;50.118;9.900;2022-09-11T08:33:47;14.93;;;10.82;;
17365;SDS011;8800;50.118;9.900;2022-09-11T08:36:14;17.50;;;11.80;;
17365;SDS011;8800;50.118;9.900;2022-09-11T08:38:41;15.80;;;11.93;;
17365;SDS011;8800;50.118;9.900;2022-09-11T08:41:08;15.68;;;10.32;;
17365;SDS011;8800;50.118;9.900;2022-09-11T08:43:36;15.32;;;10.68;;
17365;SDS011;8800;50.118;9.900;2022-09-11T08:46:09;15.90;;;10.85;;
17365;SDS011;8800;50.118;9.900;2022-09-11T08:48:38;15.20;;;9.75;;
17365;SDS011;8800;50.118;9.900;2022-09-11T08:51:11;15.07;;;9.68;;
17365;SDS011;8800;50.118;9.900;2022-09-11T08:53:39;13.07;;;9.48;;
17365;SDS011;8800;50.118;9.900;2022-09-11T08:56:07;12.80;;;9.18;;
17365;SDS011;8800;50.118;9.900;2022-09-11T08:58:39;13.20;;;8.63;;
17365;SDS011;8800;50.118;9.900;2022-09-11T09:01:10;11.32;;;8.90;;
17365;SDS011;8800;50.118;9.900;2022-09-11T09:03:51;16.88;;;9.07;;
17365;SDS011;8800;50.118;9.900;2022-09-11T09:06:28;12.52;;;9.25;;
17365;SDS011;8800;50.118;9.900;2022-09-11T09:09:01;10.73;;;7.78;;
17365;SDS011;8800;50.118;9.900;2022-09-11T09:11:30;10.90;;;7.70;;
17365;SDS011;8800;50.118;9.900;2022-09-11T09:16:44;13.27;;;8.77;;
17365;SDS011;8800;50.118;9.900;2022-09-11T09:19:13;11.90;;;7.97;;
17365;SDS011;8800;50.118;9.900;2022-09-11T09:21:44;11.07;;;7.95;;
17365;SDS011;8800;50.118;9.900;2022-09-11T09:24:12;10.52;;;8.60;;
17365;SDS011;8800;50.118;9.900;2022-09-11T09:26:44;12.60;;;8.23;;
17365;SDS011;8800;50.118;9.900;2022-09-11T09:29:13;13.45;;;8.57;;
17365;SDS011;8800;50.118;9.900;2022-09-11T09:31:42;11.23;;;7.45;;
17365;SDS011;8800;50.118;9.900;2022-09-11T09:34:12;11.70;;;8.50;;
17365;SDS011;8800;50.118;9.900;2022-09-11T09:36:42;12.18;;;8.05;;
17365;SDS011;8800;50.118;9.900;2022-09-11T09:39:13;10.18;;;7.82;;
17365;SDS011;8800;50.118;9.900;2022-09-11T09:41:52;10.65;;;7.57;;
17365;SDS011;8800;50.118;9.900;2022-09-11T09:44:26;11.60;;;7.38;;
17365;SDS011;8800;50.118;9.900;2022-09-11T09:46:54;11.27;;;7.82;;
17365;SDS011;8800;50.118;9.900;2022-09-11T09:49:22;9.52;;;6.72;;
17365;SDS011;8800;50.118;9.900;2022-09-11T09:51:49;9.02;;;7.05;;
17365;SDS011;8800;50.118;9.900;2022-09-11T09:54:18;8.52;;;6.30;;
17365;SDS011;8800;50.118;9.900;2022-09-11T09:56:49;10.35;;;6.63;;
17365;SDS011;8800;50.118;9.900;2022-09-11T09:59:20;9.82;;;6.55;;
17365;SDS011;8800;50.118;9.900;2022-09-11T10:01:47;9.93;;;6.50;;
17365;SDS011;8800;50.118;9.900;2022-09-11T10:04:16;10.02;;;6.97;;
17365;SDS011;8800;50.118;9.900;2022-09-11T10:06:43;7.93;;;5.72;;
17365;SDS011;8800;50.118;9.900;2022-09-11T10:09:18;7.25;;;5.00;;
17365;SDS011;8800;50.118;9.900;2022-09-11T10:11:49;6.97;;;4.90;;
17365;SDS011;8800;50.118;9.900;2022-09-11T10:14:18;7.45;;;4.88;;
17365;SDS011;8800;50.118;9.900;2022-09-11T10:16:47;7.55;;;5.05;;
17365;SDS011;8800;50.118;9.900;2022-09-11T10:19:33;8.27;;;4.78;;
17365;SDS011;8800;50.118;9.900;2022-09-11T10:22:12;7.60;;;5.63;;
17365;SDS011;8800;50.118;9.900;2022-09-11T10:24:42;7.57;;;5.10;;
17365;SDS011;8800;50.118;9.900;2022-09-11T10:27:09;9.25;;;5.70;;
17365;SDS011;8800;50.118;9.900;2022-09-11T10:29:38;9.55;;;5.80;;
17365;SDS011;8800;50.118;9.900;2022-09-11T10:32:14;8.50;;;5.75;;
17365;SDS011;8800;50.118;9.900;2022-09-11T10:34:42;7.45;;;5.60;;
17365;SDS011;8800;50.118;9.900;2022-09-11T10:37:16;8.32;;;5.00;;
17365;SDS011;8800;50.118;9.900;2022-09-11T10:39:49;5.72;;;4.07;;
17365;SDS011;8800;50.118;9.900;2022-09-11T10:42:16;6.20;;;4.45;;
17365;SDS011;8800;50.118;9.900;2022-09-11T10:44:47;5.43;;;4.60;;
17365;SDS011;8800;50.118;9.900;2022-09-11T10:47:16;7.88;;;5.13;;
17365;SDS011;8800;50.118;9.900;2022-09-11T10:49:44;11.10;;;6.50;;
17365;SDS011;8800;50.118;9.900;2022-09-11T10:52:16;9.55;;;5.82;;
17365;SDS011;8800;50.118;9.900;2022-09-11T10:54:45;6.15;;;4.03;;
17365;SDS011;8800;50.118;9.900;2022-09-11T10:57:18;6.13;;;4.50;;
17365;SDS011;8800;50.118;9.900;2022-09-11T10:59:52;6.72;;;4.28;;
17365;SDS011;8800;50.118;9.900;2022-09-11T11:02:24;5.05;;;3.40;;
17365;SDS011;8800;50.118;9.900;2022-09-11T11:04:54;5.20;;;3.95;;
17365;SDS011;8800;50.118;9.900;2022-09-11T11:07:26;6.07;;;4.22;;
17365;SDS011;8800;50.118;9.900;2022-09-11T11:10:02;4.47;;;3.67;;
17365;SDS011;8800;50.118;9.900;2022-09-11T11:12:35;5.88;;;4.10;;
17365;SDS011;8800;50.118;9.900;2022-09-11T11:15:18;6.72;;;3.70;;
17365;SDS011;8800;50.118;9.900;2022-09-11T11:17:48;4.32;;;3.80;;
17365;SDS011;8800;50.118;9.900;2022-09-11T11:20:24;5.95;;;3.88;;
17365;SDS011;8800;50.118;9.900;2022-09-11T11:22:57;12.07;;;4.68;;
17365;SDS011;8800;50.118;9.900;2022-09-11T11:25:26;5.78;;;4.53;;
17365;SDS011;8800;50.118;9.900;2022-09-11T11:28:05;5.45;;;4.53;;
17365;SDS011;8800;50.118;9.900;2022-09-11T11:30:37;4.93;;;4.07;;
17365;SDS011;8800;50.118;9.900;2022-09-11T11:33:13;5.32;;;4.35;;
17365;SDS011;8800;50.118;9.900;2022-09-11T11:35:46;8.05;;;4.82;;
17365;SDS011;8800;50.118;9.900;2022-09-11T11:38:15;6.80;;;4.68;;
17365;SDS011;8800;50.118;9.900;2022-09-11T11:40:45;7.07;;;4.65;;
17365;SDS011;8800;50.118;9.900;2022-09-11T11:43:15;5.80;;;3.88;;
17365;SDS011;8800;50.118;9.900;2022-09-11T11:45:44;5.60;;;5.00;;
17365;SDS011;8800;50.118;9.900;2022-09-11T11:48:15;7.38;;;5.05;;
17365;SDS011;8800;50.118;9.900;2022-09-11T11:50:45;6.78;;;4.60;;
17365;SDS011;8800;50.118;9.900;2022-09-11T11:53:16;4.53;;;3.78;;
17365;SDS011;8800;50.118;9.900;2022-09-11T11:55:47;5.90;;;4.00;;
17365;SDS011;8800;50.118;9.900;2022-09-11T11:58:20;5.78;;;3.80;;
17365;SDS011;8800;50.118;9.900;2022-09-11T12:00:49;5.75;;;4.00;;
17365;SDS011;8800;50.118;9.900;2022-09-11T12:03:19;4.22;;;3.70;;
17365;SDS011;8800;50.118;9.900;2022-09-11T12:05:47;5.22;;;4.00;;
17365;SDS011;8800;50.118;9.900;2022-09-11T12:08:14;6.75;;;3.72;;
17365;SDS011;8800;50.118;9.900;2022-09-11T12:10:43;5.63;;;3.90;;
17365;SDS011;8800;50.118;9.900;2022-09-11T12:13:13;5.75;;;3.95;;
17365;SDS011;8800;50.118;9.900;2022-09-11T12:18:23;4.72;;;3.15;;
17365;SDS011;8800;50.118;9.900;2022-09-11T12:20:51;5.88;;;4.18;;
17365;SDS011;8800;50.118;9.900;2022-09-11T12:23:31;6.03;;;4.25;;
17365;SDS011;8800;50.118;9.900;2022-09-11T12:26:17;7.25;;;4.43;;
17365;SDS011;8800;50.118;9.900;2022-09-11T12:28:44;5.70;;;3.90;;
17365;SDS011;8800;50.118;9.900;2022-09-11T12:31:12;7.97;;;4.97;;
17365;SDS011;8800;50.118;9.900;2022-09-11T12:33:50;6.30;;;3.95;;
17365;SDS011;8800;50.118;9.900;2022-09-11T12:36:19;6.97;;;4.38;;
17365;SDS011;8800;50.118;9.900;2022-09-11T12:38:49;5.88;;;4.30;;
17365;SDS011;8800;50.118;9.900;2022-09-11T12:41:20;5.07;;;3.92;;
17365;SDS011;8800;50.118;9.900;2022-09-11T12:43:48;6.85;;;3.75;;
17365;SDS011;8800;50.118;9.900;2022-09-11T12:49:07;5.35;;;3.80;;
17365;SDS011;8800;50.118;9.900;2022-09-11T12:51:38;5.63;;;4.45;;
17365;SDS011;8800;50.118;9.900;2022-09-11T12:54:11;7.53;;;4.40;;
17365;SDS011;8800;50.118;9.900;2022-09-11T12:56:43;5.80;;;3.92;;
17365;SDS011;8800;50.118;9.900;2022-09-11T12:59:17;6.10;;;4.30;;
17365;SDS011;8800;50.118;9.900;2022-09-11T13:01:45;5.15;;;3.65;;
17365;SDS011;8800;50.118;9.900;2022-09-11T13:04:14;5.32;;;4.32;;
17365;SDS011;8800;50.118;9.900;2022-09-11T13:06:44;5.10;;;4.07;;
17365;SDS011;8800;50.118;9.900;2022-09-11T13:09:18;5.18;;;4.20;;
17365;SDS011;8800;50.118;9.900;2022-09-11T13:11:47;6.75;;;4.60;;
17365;SDS011;8800;50.118;9.900;2022-09-11T13:16:59;5.65;;;4.75;;
17365;SDS011;8800;50.118;9.900;2022-09-11T13:19:31;5.35;;;4.07;;
17365;SDS011;8800;50.118;9.900;2022-09-11T13:21:58;9.43;;;4.10;;
17365;SDS011;8800;50.118;9.900;2022-09-11T13:24:25;4.45;;;3.88;;
17365;SDS011;8800;50.118;9.900;2022-09-11T13:26:52;4.68;;;4.00;;
17365;SDS011;8800;50.118;9.900;2022-09-11T13:29:24;8.25;;;3.90;;
17365;SDS011;8800;50.118;9.900;2022-09-11T13:31:51;4.15;;;3.50;;
17365;SDS011;8800;50.118;9.900;2022-09-11T13:34:18;5.10;;;3.42;;
17365;SDS011;8800;50.118;9.900;2022-09-11T13:36:49;5.22;;;3.90;;
17365;SDS011;8800;50.118;9.900;2022-09-11T13:39:16;6.78;;;4.10;;
17365;SDS011;8800;50.118;9.900;2022-09-11T13:41:43;6.32;;;3.97;;
17365;SDS011;8800;50.118;9.900;2022-09-11T13:44:12;3.95;;;3.50;;
17365;SDS011;8800;50.118;9.900;2022-09-11T13:46:48;7.03;;;3.80;;
17365;SDS011;8800;50.118;9.900;2022-09-11T13:49:21;4.88;;;3.88;;
17365;SDS011;8800;50.118;9.900;2022-09-11T13:51:51;5.68;;;3.60;;
17365;SDS011;8800;50.118;9.900;2022-09-11T13:54:22;4.03;;;3.63;;
17365;SDS011;8800;50.118;9.900;2022-09-11T13:57:04;4.90;;;3.50;;
17365;SDS011;8800;50.118;9.900;2022-09-11T13:59:36;4.07;;;3.10;;
17365;SDS011;8800;50.118;9.900;2022-09-11T14:02:04;3.75;;;2.80;;
17365;SDS011;8800;50.118;9.900;2022-09-11T14:04:37;3.67;;;3.10;;
17365;SDS011;8800;50.118;9.900;2022-09-11T14:07:13;3.72;;;3.17;;
17365;SDS011;8800;50.118;9.900;2022-09-11T14:09:40;4.28;;;3.08;;
17365;SDS011;8800;50.118;9.900;2022-09-11T14:12:11;3.92;;;3.20;;
17365;SDS011;8800;50.118;9.900;2022-09-11T14:14:38;3.40;;;2.95;;
17365;SDS011;8800;50.118;9.900;2022-09-11T14:17:07;3.47;;;2.90;;
17365;SDS011;8800;50.118;9.900;2022-09-11T14:19:34;4.13;;;3.38;;
17365;SDS011;8800;50.118;9.900;2022-09-11T14:22:12;5.30;;;3.55;;
17365;SDS011;8800;50.118;9.900;2022-09-11T14:24:41;4.20;;;3.80;;
17365;SDS011;8800;50.118;9.900;2022-09-11T14:29:56;4.47;;;3.78;;
17365;SDS011;8800;50.118;9.900;2022-09-11T14:32:28;3.90;;;3.50;;
17365;SDS011;8800;50.118;9.900;2022-09-11T14:34:55;4.95;;;3.72;;
17365;SDS011;8800;50.118;9.900;2022-09-11T14:37:23;5.25;;;4.03;;
17365;SDS011;8800;50.118;9.900;2022-09-11T14:39:51;5.72;;;3.80;;
17365;SDS011;8800;50.118;9.900;2022-09-11T14:42:20;5.70;;;3.50;;
17365;SDS011;8800;50.118;9.900;2022-09-11T14:44:47;4.20;;;3.72;;
17365;SDS011;8800;50.118;9.900;2022-09-11T14:47:15;4.22;;;3.63;;
17365;SDS011;8800;50.118;9.900;2022-09-11T14:49:42;4.22;;;3.70;;
17365;SDS011;8800;50.118;9.900;2022-09-11T14:52:09;4.38;;;3.70;;
17365;SDS011;8800;50.118;9.900;2022-09-11T14:54:38;6.68;;;3.60;;
17365;SDS011;8800;50.118;9.900;2022-09-11T14:57:07;3.83;;;3.42;;
17365;SDS011;8800;50.118;9.900;2022-09-11T14:59:36;4.50;;;3.75;;
17365;SDS011;8800;50.118;9.900;2022-09-11T15:02:03;6.15;;;3.92;;
17365;SDS011;8800;50.118;9.900;2022-09-11T15:04:29;6.15;;;3.72;;
17365;SDS011;8800;50.118;9.900;2022-09-11T15:06:56;5.07;;;3.42;;
17365;SDS011;8800;50.118;9.900;2022-09-11T15:09:23;4.65;;;3.50;;
17365;SDS011;8800;50.118;9.900;2022-09-11T15:11:52;5.45;;;3.75;;
17365;SDS011;8800;50.118;9.900;2022-09-11T15:14:18;4.72;;;3.85;;
17365;SDS011;8800;50.118;9.900;2022-09-11T15:16:46;5.40;;;3.92;;
17365;SDS011;8800;50.118;9.900;2022-09-11T15:19:12;4.75;;;4.10;;
17365;SDS011;8800;50.118;9.900;2022-09-11T15:21:39;4.65;;;3.70;;
17365;SDS011;8800;50.118;9.900;2022-09-11T15:24:06;5.13;;;3.88;;
17365;SDS011;8800;50.118;9.900;2022-09-11T15:26:34;5.00;;;3.80;;